sensor_id;sensor_type;location;lat;lon;timestamp;pressure;altitude;pressure_sealevel;temperature;humidity
5966;BME280;3009;43.224;27.976;2022-08-24T00:01:55;99997.03;;;23.42;100.00
5966;BME280;3009;43.224;27.976;2022-08-24T00:04:24;99973.16;;;23.46;100.00
5966;BME280;3009;43.224;27.976;2022-08-24T00:06:54;99974.34;;;23.45;100.00
5966;BME280;3009;43.224;27.976;2022-08-24T00:09:22;99972.91;;;23.30;100.00
5966;BME280;3009;43.224;27.976;2022-08-24T00:11:50;99972.53;;;23.31;100.00
5966;BME280;3009;43.224;27.976;2022-08-24T00:14:20;99964.31;;;23.28;100.00
5966;BME280;3009;43.224;27.976;2022-08-24T00:16:48;99967.03;;;23.31;100.00
5966;BME280;3009;43.224;27.976;2022-08-24T00:19:16;99977.59;;;23.33;100.00
5966;BME280;3009;43.224;27.976;2022-08-24T00:21:45;99976.84;;;23.29;100.00
5966;BME280;3009;43.224;27.976;2022-08-24T00:24:13;99976.44;;;23.30;100.00
5966;BME280;3009;43.224;27.976;2022-08-24T00:26:41;99980.69;;;23.35;100.00
5966;BME280;3009;43.224;27.976;2022-08-24T00:29:09;99977.94;;;23.35;100.00
5966;BME280;3009;43.224;27.976;2022-08-24T00:31:40;99978.28;;;23.41;100.00
5966;BME280;3009;43.224;27.976;2022-08-24T00:34:08;99975.16;;;23.42;100.00
5966;BME280;3009;43.224;27.976;2022-08-24T00:36:37;99971.94;;;23.51;100.00
5966;BME280;3009;43.224;27.976;2022-08-24T00:39:06;99959.03;;;23.51;100.00
5966;BME280;3009;43.224;27.976;2022-08-24T00:41:39;99951.69;;;23.41;100.00
5966;BME280;3009;43.224;27.976;2022-08-24T00:44:07;99946.22;;;23.41;100.00
5966;BME280;3009;43.224;27.976;2022-08-24T00:46:43;99947.38;;;23.44;100.00
5966;BME280;3009;43.224;27.976;2022-08-24T00:49:20;99949.31;;;23.47;100.00
5966;BME280;3009;43.224;27.976;2022-08-24T00:51:55;99949.97;;;23.58;100.00
5966;BME280;3009;43.224;27.976;2022-08-24T00:54:31;99950.75;;;23.59;100.00
5966;BME280;3009;43.224;27.976;2022-08-24T00:57:03;99926.00;;;23.69;99.97
5966;BME280;3009;43.224;27.976;2022-08-24T00:59:38;99934.06;;;23.80;98.45
5966;BME280;3009;43.224;27.976;2022-08-24T01:02:21;99934.16;;;23.73;98.50
5966;BME280;3009;43.224;27.976;2022-08-24T01:04:52;99938.16;;;23.65;99.07
5966;BME280;3009;43.224;27.976;2022-08-24T01:07:22;99947.84;;;23.73;98.79
5966;BME280;3009;43.224;27.976;2022-08-24T01:09:51;99949.13;;;23.65;100.00
5966;BME280;3009;43.224;27.976;2022-08-24T01:12:20;99948.78;;;23.59;100.00
5966;BME280;3009;43.224;27.976;2022-08-24T01:14:50;99946.09;;;23.56;100.00
5966;BME280;3009;43.224;27.976;2022-08-24T01:17:20;99959.38;;;23.57;100.00
5966;BME280;3009;43.224;27.976;2022-08-24T01:20:08;99965.25;;;23.56;100.00
5966;BME280;3009;43.224;27.976;2022-08-24T01:22:55;99984.75;;;23.58;99.39
5966;BME280;3009;43.224;27.976;2022-08-24T01:25:27;100000.66;;;23.70;98.05
5966;BME280;3009;43.224;27.976;2022-08-24T01:27:59;100000.66;;;23.74;98.03
5966;BME280;3009;43.224;27.976;2022-08-24T01:30:32;100019.47;;;23.68;98.31
5966;BME280;3009;43.224;27.976;2022-08-24T01:33:05;100028.44;;;23.68;97.90
5966;BME280;3009;43.224;27.976;2022-08-24T01:35:34;100033.63;;;23.59;98.41
5966;BME280;3009;43.224;27.976;2022-08-24T01:38:05;100029.34;;;23.54;99.05
5966;BME280;3009;43.224;27.976;2022-08-24T01:40:37;100026.66;;;23.51;99.58
5966;BME280;3009;43.224;27.976;2022-08-24T01:43:07;100025.97;;;23.43;100.00
5966;BME280;3009;43.224;27.976;2022-08-24T01:45:35;100021.59;;;23.49;99.96
5966;BME280;3009;43.224;27.976;2022-08-24T01:48:04;100027.44;;;23.51;99.22
5966;BME280;3009;43.224;27.976;2022-08-24T01:50:32;100043.91;;;23.44;99.72
5966;BME280;3009;43.224;27.976;2022-08-24T01:53:02;100040.44;;;23.40;100.00
5966;BME280;3009;43.224;27.976;2022-08-24T01:55:32;100038.06;;;23.42;100.00
5966;BME280;3009;43.224;27.976;2022-08-24T01:58:02;100021.63;;;23.46;99.74
5966;BME280;3009;43.224;27.976;2022-08-24T02:00:31;100017.34;;;23.41;100.00
5966;BME280;3009;43.224;27.976;2022-08-24T02:03:01;99997.09;;;23.35;100.00
5966;BME280;3009;43.224;27.976;2022-08-24T02:05:30;99986.53;;;23.37;100.00
5966;BME280;3009;43.224;27.976;2022-08-24T02:07:59;99963.50;;;23.34;100.00
5966;BME280;3009;43.224;27.976;2022-08-24T02:10:28;99962.66;;;23.41;100.00
5966;BME280;3009;43.224;27.976;2022-08-24T02:12:57;99971.25;;;23.43;100.00
5966;BME280;3009;43.224;27.976;2022-08-24T02:15:32;99948.97;;;23.41;100.00
5966;BME280;3009;43.224;27.976;2022-08-24T02:18:02;99943.88;;;23.43;100.00
5966;BME280;3009;43.224;27.976;2022-08-24T02:20:31;99937.94;;;23.48;100.00
5966;BME280;3009;43.224;27.976;2022-08-24T02:22:59;99939.59;;;23.42;100.00
5966;BME280;3009;43.224;27.976;2022-08-24T02:25:28;99938.41;;;23.43;100.00
5966;BME280;3009;43.224;27.976;2022-08-24T02:27:56;99930.59;;;23.42;100.00
5966;BME280;3009;43.224;27.976;2022-08-24T02:30:25;99913.75;;;23.47;100.00
5966;BME280;3009;43.224;27.976;2022-08-24T02:32:55;99912.22;;;23.42;100.00
5966;BME280;3009;43.224;27.976;2022-08-24T02:35:26;99921.19;;;23.46;100.00
5966;BME280;3009;43.224;27.976;2022-08-24T02:37:54;99906.28;;;23.47;100.00
5966;BME280;3009;43.224;27.976;2022-08-24T02:40:22;99912.59;;;23.44;100.00
5966;BME280;3009;43.224;27.976;2022-08-24T02:42:51;99919.97;;;23.47;99.88
5966;BME280;3009;43.224;27.976;2022-08-24T02:45:19;99926.97;;;23.52;99.43
5966;BME280;3009;43.224;27.976;2022-08-24T02:47:47;99917.63;;;23.49;99.60
5966;BME280;3009;43.224;27.976;2022-08-24T02:50:17;99914.91;;;23.46;99.68
5966;BME280;3009;43.224;27.976;2022-08-24T02:52:46;99907.91;;;23.45;99.59
5966;BME280;3009;43.224;27.976;2022-08-24T02:55:17;99907.16;;;23.41;100.00
5966;BME280;3009;43.224;27.976;2022-08-24T02:57:47;99901.63;;;23.44;99.87
5966;BME280;3009;43.224;27.976;2022-08-24T03:00:18;99893.91;;;23.39;99.97
5966;BME280;3009;43.224;27.976;2022-08-24T03:02:47;99887.28;;;23.36;100.00
5966;BME280;3009;43.224;27.976;2022-08-24T03:05:17;99896.69;;;23.32;100.00
5966;BME280;3009;43.224;27.976;2022-08-24T03:07:45;99886.09;;;23.38;100.00
5966;BME280;3009;43.224;27.976;2022-08-24T03:10:14;99883.03;;;23.32;100.00
5966;BME280;3009;43.224;27.976;2022-08-24T03:12:42;99880.28;;;23.32;100.00
5966;BME280;3009;43.224;27.976;2022-08-24T03:15:11;99884.19;;;23.31;100.00
5966;BME280;3009;43.224;27.976;2022-08-24T03:17:40;99888.84;;;23.34;99.77
5966;BME280;3009;43.224;27.976;2022-08-24T03:20:12;99878.66;;;23.38;99.65
5966;BME280;3009;43.224;27.976;2022-08-24T03:22:43;99863.44;;;23.37;99.88
5966;BME280;3009;43.224;27.976;2022-08-24T03:25:14;99832.72;;;23.22;100.00
5966;BME280;3009;43.224;27.976;2022-08-24T03:27:42;99836.25;;;23.23;100.00
5966;BME280;3009;43.224;27.976;2022-08-24T03:30:13;99827.56;;;23.28;99.92
5966;BME280;3009;43.224;27.976;2022-08-24T03:32:42;99805.28;;;23.29;99.83
5966;BME280;3009;43.224;27.976;2022-08-24T03:35:12;99798.31;;;23.25;99.29
5966;BME280;3009;43.224;27.976;2022-08-24T03:37:42;99802.59;;;23.26;99.04
5966;BME280;3009;43.224;27.976;2022-08-24T03:40:12;99790.84;;;23.29;98.79
5966;BME280;3009;43.224;27.976;2022-08-24T03:42:50;99778.72;;;23.30;98.52
5966;BME280;3009;43.224;27.976;2022-08-24T03:45:19;99777.16;;;23.29;98.43
5966;BME280;3009;43.224;27.976;2022-08-24T03:47:49;99787.63;;;23.34;97.65
5966;BME280;3009;43.224;27.976;2022-08-24T03:50:18;99768.50;;;23.34;97.43
5966;BME280;3009;43.224;27.976;2022-08-24T03:52:48;99749.06;;;23.25;97.63
5966;BME280;3009;43.224;27.976;2022-08-24T03:55:17;99737.69;;;23.30;96.66
5966;BME280;3009;43.224;27.976;2022-08-24T03:57:46;99744.69;;;23.31;96.10
5966;BME280;3009;43.224;27.976;2022-08-24T04:00:15;99736.91;;;23.29;95.69
5966;BME280;3009;43.224;27.976;2022-08-24T04:02:43;99776.69;;;23.34;95.15
5966;BME280;3009;43.224;27.976;2022-08-24T04:05:12;99828.66;;;23.34;94.87
5966;BME280;3009;43.224;27.976;2022-08-24T04:07:40;99867.72;;;23.38;94.75
5966;BME280;3009;43.224;27.976;2022-08-24T04:10:10;99900.94;;;23.36;94.90
5966;BME280;3009;43.224;27.976;2022-08-24T04:12:41;99912.69;;;23.37;94.47
5966;BME280;3009;43.224;27.976;2022-08-24T04:15:12;99927.47;;;23.40;94.21
5966;BME280;3009;43.224;27.976;2022-08-24T04:17:40;99947.03;;;23.42;93.92
5966;BME280;3009;43.224;27.976;2022-08-24T04:20:09;99934.41;;;23.51;93.68
5966;BME280;3009;43.224;27.976;2022-08-24T04:22:38;99903.13;;;23.52;92.74
5966;BME280;3009;43.224;27.976;2022-08-24T04:25:07;99894.94;;;23.49;92.37
5966;BME280;3009;43.224;27.976;2022-08-24T04:27:38;99910.25;;;23.46;91.89
5966;BME280;3009;43.224;27.976;2022-08-24T04:30:08;99927.00;;;23.48;91.55
5966;BME280;3009;43.224;27.976;2022-08-24T04:32:40;99930.09;;;23.50;91.08
5966;BME280;3009;43.224;27.976;2022-08-24T04:35:09;99934.34;;;23.55;90.33
5966;BME280;3009;43.224;27.976;2022-08-24T04:37:37;99925.78;;;23.53;89.77
5966;BME280;3009;43.224;27.976;2022-08-24T04:40:06;99906.50;;;23.64;89.45
5966;BME280;3009;43.224;27.976;2022-08-24T04:42:37;99901.31;;;23.73;88.79
5966;BME280;3009;43.224;27.976;2022-08-24T04:45:07;99900.69;;;23.62;89.31
5966;BME280;3009;43.224;27.976;2022-08-24T04:47:35;99898.78;;;23.55;89.41
5966;BME280;3009;43.224;27.976;2022-08-24T04:50:05;99890.97;;;23.53;89.03
5966;BME280;3009;43.224;27.976;2022-08-24T04:52:33;99892.06;;;23.63;88.10
5966;BME280;3009;43.224;27.976;2022-08-24T04:55:03;99889.69;;;23.65;87.54
5966;BME280;3009;43.224;27.976;2022-08-24T04:57:33;99900.59;;;23.69;86.97
5966;BME280;3009;43.224;27.976;2022-08-24T05:00:05;99940.91;;;23.65;87.16
5966;BME280;3009;43.224;27.976;2022-08-24T05:02:35;99963.09;;;23.74;86.70
5966;BME280;3009;43.224;27.976;2022-08-24T05:05:10;99988.41;;;23.82;87.60
5966;BME280;3009;43.224;27.976;2022-08-24T05:07:39;100000.47;;;23.92;86.49
5966;BME280;3009;43.224;27.976;2022-08-24T05:10:08;99993.31;;;24.01;86.01
5966;BME280;3009;43.224;27.976;2022-08-24T05:12:37;99990.50;;;24.09;84.47
5966;BME280;3009;43.224;27.976;2022-08-24T05:15:08;99991.06;;;23.93;83.72
5966;BME280;3009;43.224;27.976;2022-08-24T05:17:36;99984.13;;;24.19;82.96
5966;BME280;3009;43.224;27.976;2022-08-24T05:20:09;99985.63;;;24.23;80.61
5966;BME280;3009;43.224;27.976;2022-08-24T05:22:37;99984.53;;;24.17;80.40
5966;BME280;3009;43.224;27.976;2022-08-24T05:25:06;99962.69;;;24.10;79.45
5966;BME280;3009;43.224;27.976;2022-08-24T05:27:35;99956.06;;;24.08;79.69
5966;BME280;3009;43.224;27.976;2022-08-24T05:30:04;99942.38;;;24.08;79.35
5966;BME280;3009;43.224;27.976;2022-08-24T05:32:34;99933.84;;;24.02;79.11
5966;BME280;3009;43.224;27.976;2022-08-24T05:35:02;99921.78;;;23.96;78.58
5966;BME280;3009;43.224;27.976;2022-08-24T05:37:31;99923.63;;;24.06;77.04
5966;BME280;3009;43.224;27.976;2022-08-24T05:40:01;99924.84;;;24.01;77.16
5966;BME280;3009;43.224;27.976;2022-08-24T05:42:29;99923.19;;;24.11;76.51
5966;BME280;3009;43.224;27.976;2022-08-24T05:44:58;99936.31;;;24.23;75.72
5966;BME280;3009;43.224;27.976;2022-08-24T05:47:26;99956.84;;;24.39;75.34
5966;BME280;3009;43.224;27.976;2022-08-24T05:49:57;99964.25;;;24.69;72.96
5966;BME280;3009;43.224;27.976;2022-08-24T05:52:25;99974.41;;;24.72;72.53
5966;BME280;3009;43.224;27.976;2022-08-24T05:54:56;99977.72;;;25.11;71.80
5966;BME280;3009;43.224;27.976;2022-08-24T05:57:30;99987.16;;;25.34;72.05
5966;BME280;3009;43.224;27.976;2022-08-24T05:59:58;99989.69;;;25.88;70.33
5966;BME280;3009;43.224;27.976;2022-08-24T06:02:27;99998.31;;;26.83;65.08
5966;BME280;3009;43.224;27.976;2022-08-24T06:04:57;99998.91;;;27.70;62.26
5966;BME280;3009;43.224;27.976;2022-08-24T06:07:25;100009.41;;;28.04;60.09
5966;BME280;3009;43.224;27.976;2022-08-24T06:09:54;100028.47;;;29.05;56.80
5966;BME280;3009;43.224;27.976;2022-08-24T06:12:43;100030.09;;;29.63;54.02
5966;BME280;3009;43.224;27.976;2022-08-24T06:15:12;100033.53;;;30.12;52.29
5966;BME280;3009;43.224;27.976;2022-08-24T06:17:40;100035.16;;;30.53;52.18
5966;BME280;3009;43.224;27.976;2022-08-24T06:20:10;100043.75;;;30.02;53.23
5966;BME280;3009;43.224;27.976;2022-08-24T06:22:38;100052.28;;;28.48;58.04
5966;BME280;3009;43.224;27.976;2022-08-24T06:25:07;100047.13;;;27.62;61.27
5966;BME280;3009;43.224;27.976;2022-08-24T06:27:52;100065.47;;;27.52;62.40
5966;BME280;3009;43.224;27.976;2022-08-24T06:30:21;100077.75;;;27.64;61.97
5966;BME280;3009;43.224;27.976;2022-08-24T06:32:58;100083.59;;;27.66;62.25
5966;BME280;3009;43.224;27.976;2022-08-24T06:35:28;100068.75;;;27.47;62.09
5966;BME280;3009;43.224;27.976;2022-08-24T06:37:56;100065.47;;;27.35;62.87
5966;BME280;3009;43.224;27.976;2022-08-24T06:40:25;100056.28;;;27.26;63.08
5966;BME280;3009;43.224;27.976;2022-08-24T06:42:54;100041.22;;;26.97;63.22
5966;BME280;3009;43.224;27.976;2022-08-24T06:45:22;100035.47;;;26.35;65.22
5966;BME280;3009;43.224;27.976;2022-08-24T06:47:51;100039.31;;;26.21;66.68
5966;BME280;3009;43.224;27.976;2022-08-24T06:50:19;100045.59;;;25.78;69.34
5966;BME280;3009;43.224;27.976;2022-08-24T06:52:51;100037.59;;;25.63;70.27
5966;BME280;3009;43.224;27.976;2022-08-24T06:55:20;100034.47;;;25.85;69.63
5966;BME280;3009;43.224;27.976;2022-08-24T06:57:48;100038.63;;;25.93;65.60
5966;BME280;3009;43.224;27.976;2022-08-24T07:00:19;100042.97;;;25.71;66.59
5966;BME280;3009;43.224;27.976;2022-08-24T07:02:47;100063.28;;;25.29;68.10
5966;BME280;3009;43.224;27.976;2022-08-24T07:05:16;100064.94;;;25.20;71.42
5966;BME280;3009;43.224;27.976;2022-08-24T07:07:44;100055.91;;;25.23;73.31
5966;BME280;3009;43.224;27.976;2022-08-24T07:10:15;100057.19;;;25.42;71.19
5966;BME280;3009;43.224;27.976;2022-08-24T07:12:48;100058.75;;;25.43;70.70
5966;BME280;3009;43.224;27.976;2022-08-24T07:15:16;100066.81;;;25.26;74.09
5966;BME280;3009;43.224;27.976;2022-08-24T07:17:45;100076.63;;;25.27;75.02
5966;BME280;3009;43.224;27.976;2022-08-24T07:20:13;100056.84;;;25.40;73.49
5966;BME280;3009;43.224;27.976;2022-08-24T07:22:43;100012.88;;;25.16;73.35
5966;BME280;3009;43.224;27.976;2022-08-24T07:25:12;99993.81;;;24.54;82.15
5966;BME280;3009;43.224;27.976;2022-08-24T07:27:43;100004.84;;;23.85;84.48
5966;BME280;3009;43.224;27.976;2022-08-24T07:30:11;100050.06;;;24.32;80.59
5966;BME280;3009;43.224;27.976;2022-08-24T07:32:54;100081.00;;;24.94;85.57
5966;BME280;3009;43.224;27.976;2022-08-24T07:35:23;100091.84;;;25.32;85.21
5966;BME280;3009;43.224;27.976;2022-08-24T07:37:52;100095.72;;;25.35;83.99
5966;BME280;3009;43.224;27.976;2022-08-24T07:40:21;100078.66;;;25.71;83.15
5966;BME280;3009;43.224;27.976;2022-08-24T07:42:52;100081.00;;;26.16;81.19
5966;BME280;3009;43.224;27.976;2022-08-24T07:45:21;100084.84;;;26.79;77.42
5966;BME280;3009;43.224;27.976;2022-08-24T07:47:50;100090.22;;;27.02;74.27
5966;BME280;3009;43.224;27.976;2022-08-24T07:50:21;100095.06;;;27.48;74.78
5966;BME280;3009;43.224;27.976;2022-08-24T07:52:50;100093.09;;;27.65;71.60
5966;BME280;3009;43.224;27.976;2022-08-24T07:55:18;100096.25;;;27.96;72.19
5966;BME280;3009;43.224;27.976;2022-08-24T07:57:47;100095.22;;;28.19;68.75
5966;BME280;3009;43.224;27.976;2022-08-24T08:00:18;100087.75;;;28.33;64.26
5966;BME280;3009;43.224;27.976;2022-08-24T08:02:47;100085.44;;;28.02;61.59
5966;BME280;3009;43.224;27.976;2022-08-24T08:05:19;100080.88;;;27.95;64.52
5966;BME280;3009;43.224;27.976;2022-08-24T08:07:48;100084.00;;;27.81;66.15
5966;BME280;3009;43.224;27.976;2022-08-24T08:10:18;100086.69;;;28.43;62.62
5966;BME280;3009;43.224;27.976;2022-08-24T08:12:47;100076.03;;;28.84;61.18
5966;BME280;3009;43.224;27.976;2022-08-24T08:15:17;100061.34;;;28.61;58.02
5966;BME280;3009;43.224;27.976;2022-08-24T08:17:45;100067.84;;;28.12;60.03
5966;BME280;3009;43.224;27.976;2022-08-24T08:20:21;100075.97;;;28.03;61.01
5966;BME280;3009;43.224;27.976;2022-08-24T08:22:49;100075.53;;;28.04;62.20
5966;BME280;3009;43.224;27.976;2022-08-24T08:25:35;100076.97;;;28.51;61.50
5966;BME280;3009;43.224;27.976;2022-08-24T08:28:04;100091.84;;;28.70;60.39
5966;BME280;3009;43.224;27.976;2022-08-24T08:30:53;100086.41;;;28.92;61.32
5966;BME280;3009;43.224;27.976;2022-08-24T08:33:22;100091.47;;;29.20;59.16
5966;BME280;3009;43.224;27.976;2022-08-24T08:35:52;100089.06;;;28.96;59.25
5966;BME280;3009;43.224;27.976;2022-08-24T08:38:23;100083.00;;;29.27;58.14
5966;BME280;3009;43.224;27.976;2022-08-24T08:41:06;100095.16;;;29.29;58.75
5966;BME280;3009;43.224;27.976;2022-08-24T08:43:42;100101.22;;;29.24;56.99
5966;BME280;3009;43.224;27.976;2022-08-24T08:46:24;100106.50;;;29.44;58.64
5966;BME280;3009;43.224;27.976;2022-08-24T08:49:07;100100.91;;;29.22;57.83
5966;BME280;3009;43.224;27.976;2022-08-24T08:52:00;100086.19;;;29.38;58.21
5966;BME280;3009;43.224;27.976;2022-08-24T08:54:43;100081.75;;;29.41;57.67
5966;BME280;3009;43.224;27.976;2022-08-24T08:57:40;100091.88;;;29.57;56.98
5966;BME280;3009;43.224;27.976;2022-08-24T09:00:15;100099.88;;;29.29;57.06
5966;BME280;3009;43.224;27.976;2022-08-24T09:03:14;100096.56;;;29.34;57.97
5966;BME280;3009;43.224;27.976;2022-08-24T09:06:10;100098.53;;;29.46;56.50
5966;BME280;3009;43.224;27.976;2022-08-24T09:08:53;100095.41;;;29.57;57.08
5966;BME280;3009;43.224;27.976;2022-08-24T09:11:36;100097.03;;;29.67;56.08
5966;BME280;3009;43.224;27.976;2022-08-24T09:14:24;100101.06;;;29.54;55.08
5966;BME280;3009;43.224;27.976;2022-08-24T09:17:11;100100.66;;;29.77;54.37
5966;BME280;3009;43.224;27.976;2022-08-24T09:19:58;100102.97;;;29.92;55.48
5966;BME280;3009;43.224;27.976;2022-08-24T09:22:37;100100.38;;;30.19;54.61
5966;BME280;3009;43.224;27.976;2022-08-24T09:25:21;100095.94;;;30.22;53.66
5966;BME280;3009;43.224;27.976;2022-08-24T09:28:07;100101.13;;;30.11;54.64
5966;BME280;3009;43.224;27.976;2022-08-24T09:30:57;100097.31;;;30.17;53.67
5966;BME280;3009;43.224;27.976;2022-08-24T09:33:35;100100.97;;;30.14;53.90
5966;BME280;3009;43.224;27.976;2022-08-24T09:36:10;100092.22;;;30.38;53.83
5966;BME280;3009;43.224;27.976;2022-08-24T09:38:58;100088.97;;;30.08;53.81
5966;BME280;3009;43.224;27.976;2022-08-24T09:41:54;100080.78;;;30.27;52.38
5966;BME280;3009;43.224;27.976;2022-08-24T09:44:50;100081.75;;;30.11;52.10
5966;BME280;3009;43.224;27.976;2022-08-24T09:47:48;100080.41;;;30.15;51.19
5966;BME280;3009;43.224;27.976;2022-08-24T09:50:35;100075.88;;;30.31;51.65
5966;BME280;3009;43.224;27.976;2022-08-24T09:56:34;100074.16;;;30.46;52.87
5966;BME280;3009;43.224;27.976;2022-08-24T09:59:19;100080.91;;;30.45;53.05
5966;BME280;3009;43.224;27.976;2022-08-24T10:01:59;100073.28;;;30.05;53.84
5966;BME280;3009;43.224;27.976;2022-08-24T10:04:43;100070.19;;;29.68;55.65
5966;BME280;3009;43.224;27.976;2022-08-24T10:07:22;100063.38;;;29.60;56.31
5966;BME280;3009;43.224;27.976;2022-08-24T10:10:12;100058.09;;;29.52;56.30
5966;BME280;3009;43.224;27.976;2022-08-24T10:12:55;100047.09;;;29.27;56.80
5966;BME280;3009;43.224;27.976;2022-08-24T10:15:27;100047.19;;;29.36;57.54
5966;BME280;3009;43.224;27.976;2022-08-24T10:18:21;100037.53;;;28.93;57.15
5966;BME280;3009;43.224;27.976;2022-08-24T10:21:05;100035.84;;;28.95;57.76
5966;BME280;3009;43.224;27.976;2022-08-24T10:24:05;100028.81;;;28.69;54.62
5966;BME280;3009;43.224;27.976;2022-08-24T10:27:02;100020.44;;;28.72;55.20
5966;BME280;3009;43.224;27.976;2022-08-24T10:29:51;100018.28;;;28.38;56.01
5966;BME280;3009;43.224;27.976;2022-08-24T10:32:46;100013.72;;;28.05;57.49
5966;BME280;3009;43.224;27.976;2022-08-24T10:35:23;100001.31;;;28.26;57.16
5966;BME280;3009;43.224;27.976;2022-08-24T10:41:17;100003.16;;;28.17;55.36
5966;BME280;3009;43.224;27.976;2022-08-24T10:44:03;100016.19;;;28.55;54.94
5966;BME280;3009;43.224;27.976;2022-08-24T10:46:41;100005.81;;;28.33;55.15
5966;BME280;3009;43.224;27.976;2022-08-24T10:49:42;100011.78;;;28.57;54.58
5966;BME280;3009;43.224;27.976;2022-08-24T10:52:41;100025.00;;;29.40;53.80
5966;BME280;3009;43.224;27.976;2022-08-24T10:55:18;100032.03;;;29.76;51.22
5966;BME280;3009;43.224;27.976;2022-08-24T10:58:00;100046.28;;;29.74;52.35
5966;BME280;3009;43.224;27.976;2022-08-24T11:00:35;100046.63;;;29.76;52.38
5966;BME280;3009;43.224;27.976;2022-08-24T11:03:09;100062.25;;;29.92;54.01
5966;BME280;3009;43.224;27.976;2022-08-24T11:05:43;100063.44;;;30.04;53.32
5966;BME280;3009;43.224;27.976;2022-08-24T11:08:19;100070.81;;;29.85;54.81
5966;BME280;3009;43.224;27.976;2022-08-24T11:11:04;100069.28;;;30.06;54.00
5966;BME280;3009;43.224;27.976;2022-08-24T11:13:34;100074.47;;;30.26;56.81
5966;BME280;3009;43.224;27.976;2022-08-24T11:16:05;100074.22;;;30.33;56.77
5966;BME280;3009;43.224;27.976;2022-08-24T11:18:51;100074.88;;;30.15;59.91
5966;BME280;3009;43.224;27.976;2022-08-24T11:21:33;100084.06;;;30.12;59.75
5966;BME280;3009;43.224;27.976;2022-08-24T11:24:05;100068.56;;;30.15;59.83
5966;BME280;3009;43.224;27.976;2022-08-24T11:26:46;100064.44;;;30.19;59.66
5966;BME280;3009;43.224;27.976;2022-08-24T11:29:19;100052.75;;;29.93;60.99
5966;BME280;3009;43.224;27.976;2022-08-24T11:31:51;100046.53;;;30.02;59.38
5966;BME280;3009;43.224;27.976;2022-08-24T11:34:31;100043.69;;;30.15;60.14
5966;BME280;3009;43.224;27.976;2022-08-24T11:37:00;100043.22;;;30.16;60.23
5966;BME280;3009;43.224;27.976;2022-08-24T11:39:32;100050.00;;;30.15;59.67
5966;BME280;3009;43.224;27.976;2022-08-24T11:42:10;100046.59;;;30.11;60.67
5966;BME280;3009;43.224;27.976;2022-08-24T11:44:45;100058.44;;;29.77;62.45
5966;BME280;3009;43.224;27.976;2022-08-24T11:50:27;100036.56;;;29.47;63.29
5966;BME280;3009;43.224;27.976;2022-08-24T11:53:08;100043.75;;;29.45;64.24
5966;BME280;3009;43.224;27.976;2022-08-24T11:55:43;100040.06;;;29.61;63.71
5966;BME280;3009;43.224;27.976;2022-08-24T11:58:32;100031.56;;;29.77;63.16
5966;BME280;3009;43.224;27.976;2022-08-24T12:01:07;100031.25;;;29.75;62.87
5966;BME280;3009;43.224;27.976;2022-08-24T12:03:49;100023.94;;;29.59;62.68
5966;BME280;3009;43.224;27.976;2022-08-24T12:06:37;100017.81;;;29.64;61.18
5966;BME280;3009;43.224;27.976;2022-08-24T12:09:19;100016.09;;;29.58;62.44
5966;BME280;3009;43.224;27.976;2022-08-24T12:11:54;100018.31;;;29.50;62.15
5966;BME280;3009;43.224;27.976;2022-08-24T12:14:32;100013.88;;;29.52;62.61
5966;BME280;3009;43.224;27.976;2022-08-24T12:17:09;100017.53;;;29.49;63.29
5966;BME280;3009;43.224;27.976;2022-08-24T12:19:44;100018.81;;;29.36;63.79
5966;BME280;3009;43.224;27.976;2022-08-24T12:22:14;100014.13;;;29.45;62.12
5966;BME280;3009;43.224;27.976;2022-08-24T12:24:46;100008.97;;;29.34;62.83
5966;BME280;3009;43.224;27.976;2022-08-24T12:27:18;100008.22;;;29.34;61.80
5966;BME280;3009;43.224;27.976;2022-08-24T12:29:49;100006.06;;;29.51;62.04
5966;BME280;3009;43.224;27.976;2022-08-24T12:32:23;100006.56;;;29.37;62.95
5966;BME280;3009;43.224;27.976;2022-08-24T12:34:57;100008.06;;;29.50;62.95
5966;BME280;3009;43.224;27.976;2022-08-24T12:37:30;100013.00;;;29.56;62.64
5966;BME280;3009;43.224;27.976;2022-08-24T12:40:05;100010.56;;;29.58;63.07
5966;BME280;3009;43.224;27.976;2022-08-24T12:42:42;100010.81;;;29.50;63.86
5966;BME280;3009;43.224;27.976;2022-08-24T12:45:19;100015.81;;;29.43;64.86
5966;BME280;3009;43.224;27.976;2022-08-24T12:47:53;100011.56;;;29.51;65.47
5966;BME280;3009;43.224;27.976;2022-08-24T12:50:29;100017.16;;;29.38;67.22
5966;BME280;3009;43.224;27.976;2022-08-24T12:53:38;100015.28;;;29.35;67.53
5966;BME280;3009;43.224;27.976;2022-08-24T12:59:17;100010.44;;;29.26;68.47
5966;BME280;3009;43.224;27.976;2022-08-24T13:01:57;99997.53;;;29.10;68.21
5966;BME280;3009;43.224;27.976;2022-08-24T13:04:33;99993.88;;;29.13;66.49
5966;BME280;3009;43.224;27.976;2022-08-24T13:07:08;100003.03;;;29.10;68.39
5966;BME280;3009;43.224;27.976;2022-08-24T13:09:40;99986.63;;;28.94;67.90
5966;BME280;3009;43.224;27.976;2022-08-24T13:15:24;99991.94;;;28.50;64.98
5966;BME280;3009;43.224;27.976;2022-08-24T13:17:55;99984.97;;;28.45;66.17
5966;BME280;3009;43.224;27.976;2022-08-24T13:20:53;99977.38;;;28.36;67.98
5966;BME280;3009;43.224;27.976;2022-08-24T13:23:23;99974.91;;;28.13;69.30
5966;BME280;3009;43.224;27.976;2022-08-24T13:25:56;99969.06;;;28.10;67.54
5966;BME280;3009;43.224;27.976;2022-08-24T13:28:40;99969.84;;;28.37;66.31
5966;BME280;3009;43.224;27.976;2022-08-24T13:31:29;99962.84;;;27.64;70.23
5966;BME280;3009;43.224;27.976;2022-08-24T13:34:36;99959.56;;;27.40;70.67
5966;BME280;3009;43.224;27.976;2022-08-24T13:37:16;99951.78;;;27.81;69.74
5966;BME280;3009;43.224;27.976;2022-08-24T13:40:03;99949.41;;;27.96;68.99
5966;BME280;3009;43.224;27.976;2022-08-24T13:42:45;99946.50;;;27.86;69.59
5966;BME280;3009;43.224;27.976;2022-08-24T13:45:36;99946.50;;;27.86;69.44
5966;BME280;3009;43.224;27.976;2022-08-24T13:48:24;99938.88;;;28.07;69.73
5966;BME280;3009;43.224;27.976;2022-08-24T13:51:20;99943.84;;;28.25;69.47
5966;BME280;3009;43.224;27.976;2022-08-24T13:54:04;99942.09;;;28.31;69.04
5966;BME280;3009;43.224;27.976;2022-08-24T13:56:59;99953.34;;;28.50;65.12